sensor_id;sensor_type;location;lat;lon;timestamp;pressure;altitude;pressure_sealevel;temperature
10058;BMP180;5068;51.286;7.518;2023-10-09T00:00:10;99836.00;;;14.30
10058;BMP180;5068;51.286;7.518;2023-10-09T00:01:57;99850.00;;;14.30
10058;BMP180;5068;51.286;7.518;2023-10-09T00:03:31;99841.00;;;14.30
10058;BMP180;5068;51.286;7.518;2023-10-09T00:05:04;99838.00;;;14.20
10058;BMP180;5068;51.286;7.518;2023-10-09T00:06:43;99838.00;;;14.20
10058;BMP180;5068;51.286;7.518;2023-10-09T00:08:17;99835.00;;;14.20
10058;BMP180;5068;51.286;7.518;2023-10-09T00:09:54;99838.00;;;14.20
10058;BMP180;5068;51.286;7.518;2023-10-09T00:11:27;99841.00;;;14.20
10058;BMP180;5068;51.286;7.518;2023-10-09T00:13:02;99832.00;;;14.10
10058;BMP180;5068;51.286;7.518;2023-10-09T00:14:36;99830.00;;;14.10
10058;BMP180;5068;51.286;7.518;2023-10-09T00:16:10;99834.00;;;14.10
10058;BMP180;5068;51.286;7.518;2023-10-09T00:17:47;99837.00;;;14.10
10058;BMP180;5068;51.286;7.518;2023-10-09T00:19:21;99842.00;;;14.10
10058;BMP180;5068;51.286;7.518;2023-10-09T00:21:02;99828.00;;;14.10
10058;BMP180;5068;51.286;7.518;2023-10-09T00:22:45;99836.00;;;14.10
10058;BMP180;5068;51.286;7.518;2023-10-09T00:24:20;99835.00;;;14.00
10058;BMP180;5068;51.286;7.518;2023-10-09T00:25:55;99829.00;;;14.00
10058;BMP180;5068;51.286;7.518;2023-10-09T00:27:43;99842.00;;;14.00
10058;BMP180;5068;51.286;7.518;2023-10-09T00:29:18;99837.00;;;14.00
10058;BMP180;5068;51.286;7.518;2023-10-09T00:30:54;99831.00;;;14.00
10058;BMP180;5068;51.286;7.518;2023-10-09T00:32:27;99825.00;;;14.00
10058;BMP180;5068;51.286;7.518;2023-10-09T00:34:04;99825.00;;;13.90
10058;BMP180;5068;51.286;7.518;2023-10-09T00:35:39;99812.00;;;13.90
10058;BMP180;5068;51.286;7.518;2023-10-09T00:37:26;99809.00;;;13.90
10058;BMP180;5068;51.286;7.518;2023-10-09T00:39:05;99807.00;;;13.80
10058;BMP180;5068;51.286;7.518;2023-10-09T00:40:52;99807.00;;;13.80
10058;BMP180;5068;51.286;7.518;2023-10-09T00:42:33;99820.00;;;13.80
10058;BMP180;5068;51.286;7.518;2023-10-09T00:44:10;99811.00;;;13.80
10058;BMP180;5068;51.286;7.518;2023-10-09T00:45:44;99819.00;;;13.80
10058;BMP180;5068;51.286;7.518;2023-10-09T00:47:18;99820.00;;;13.70
10058;BMP180;5068;51.286;7.518;2023-10-09T00:48:57;99818.00;;;13.70
10058;BMP180;5068;51.286;7.518;2023-10-09T00:50:34;99812.00;;;13.70
10058;BMP180;5068;51.286;7.518;2023-10-09T00:52:08;99807.00;;;13.70
10058;BMP180;5068;51.286;7.518;2023-10-09T00:53:53;99809.00;;;13.70
10058;BMP180;5068;51.286;7.518;2023-10-09T00:55:26;99810.00;;;13.70
10058;BMP180;5068;51.286;7.518;2023-10-09T00:57:11;99812.00;;;13.70
10058;BMP180;5068;51.286;7.518;2023-10-09T00:58:46;99813.00;;;13.70
10058;BMP180;5068;51.286;7.518;2023-10-09T01:00:27;99801.00;;;13.60
10058;BMP180;5068;51.286;7.518;2023-10-09T01:02:17;99801.00;;;13.60
10058;BMP180;5068;51.286;7.518;2023-10-09T01:03:51;99789.00;;;13.70
10058;BMP180;5068;51.286;7.518;2023-10-09T01:05:25;99786.00;;;13.70
10058;BMP180;5068;51.286;7.518;2023-10-09T01:06:59;99789.00;;;13.70
10058;BMP180;5068;51.286;7.518;2023-10-09T01:08:41;99788.00;;;13.60
10058;BMP180;5068;51.286;7.518;2023-10-09T01:10:19;99790.00;;;13.70
10058;BMP180;5068;51.286;7.518;2023-10-09T01:11:54;99790.00;;;13.70
10058;BMP180;5068;51.286;7.518;2023-10-09T01:13:41;99783.00;;;13.70
10058;BMP180;5068;51.286;7.518;2023-10-09T01:15:24;99779.00;;;13.60
10058;BMP180;5068;51.286;7.518;2023-10-09T01:17:09;99780.00;;;13.60
10058;BMP180;5068;51.286;7.518;2023-10-09T01:18:44;99787.00;;;13.60
10058;BMP180;5068;51.286;7.518;2023-10-09T01:20:22;99788.00;;;13.60
10058;BMP180;5068;51.286;7.518;2023-10-09T01:22:02;99784.00;;;13.60
10058;BMP180;5068;51.286;7.518;2023-10-09T01:23:38;99771.00;;;13.60
10058;BMP180;5068;51.286;7.518;2023-10-09T01:25:15;99769.00;;;13.70
10058;BMP180;5068;51.286;7.518;2023-10-09T01:26:48;99763.00;;;13.70
10058;BMP180;5068;51.286;7.518;2023-10-09T01:28:21;99770.00;;;13.70
10058;BMP180;5068;51.286;7.518;2023-10-09T01:29:56;99761.00;;;13.70
10058;BMP180;5068;51.286;7.518;2023-10-09T01:31:31;99763.00;;;13.70
10058;BMP180;5068;51.286;7.518;2023-10-09T01:33:09;99759.00;;;13.80
10058;BMP180;5068;51.286;7.518;2023-10-09T01:34:54;99766.00;;;13.80
10058;BMP180;5068;51.286;7.518;2023-10-09T01:36:30;99756.00;;;13.80
10058;BMP180;5068;51.286;7.518;2023-10-09T01:38:03;99764.00;;;13.80
10058;BMP180;5068;51.286;7.518;2023-10-09T01:39:43;99758.00;;;13.80
10058;BMP180;5068;51.286;7.518;2023-10-09T01:41:17;99755.00;;;13.80
10058;BMP180;5068;51.286;7.518;2023-10-09T01:42:52;99753.00;;;13.80
10058;BMP180;5068;51.286;7.518;2023-10-09T01:44:27;99758.00;;;13.80
10058;BMP180;5068;51.286;7.518;2023-10-09T01:46:02;99748.00;;;13.80
10058;BMP180;5068;51.286;7.518;2023-10-09T01:47:38;99744.00;;;13.80
10058;BMP180;5068;51.286;7.518;2023-10-09T01:49:10;99748.00;;;13.80
10058;BMP180;5068;51.286;7.518;2023-10-09T01:50:49;99753.00;;;13.80
10058;BMP180;5068;51.286;7.518;2023-10-09T01:52:22;99750.00;;;13.80
10058;BMP180;5068;51.286;7.518;2023-10-09T01:53:56;99742.00;;;13.80
10058;BMP180;5068;51.286;7.518;2023-10-09T01:55:32;99751.00;;;13.80
10058;BMP180;5068;51.286;7.518;2023-10-09T01:57:09;99756.00;;;13.80
10058;BMP180;5068;51.286;7.518;2023-10-09T01:58:44;99760.00;;;13.80
10058;BMP180;5068;51.286;7.518;2023-10-09T02:00:19;99763.00;;;13.80
10058;BMP180;5068;51.286;7.518;2023-10-09T02:01:55;99765.00;;;13.80
10058;BMP180;5068;51.286;7.518;2023-10-09T02:03:30;99769.00;;;13.80
10058;BMP180;5068;51.286;7.518;2023-10-09T02:05:05;99766.00;;;13.80
10058;BMP180;5068;51.286;7.518;2023-10-09T02:06:41;99774.00;;;13.80
10058;BMP180;5068;51.286;7.518;2023-10-09T02:08:13;99762.00;;;13.80
10058;BMP180;5068;51.286;7.518;2023-10-09T02:09:48;99766.00;;;13.80
10058;BMP180;5068;51.286;7.518;2023-10-09T02:11:22;99761.00;;;13.80
10058;BMP180;5068;51.286;7.518;2023-10-09T02:13:10;99753.00;;;13.80
10058;BMP180;5068;51.286;7.518;2023-10-09T02:14:45;99762.00;;;13.80
10058;BMP180;5068;51.286;7.518;2023-10-09T02:16:17;99762.00;;;13.80
10058;BMP180;5068;51.286;7.518;2023-10-09T02:18:00;99771.00;;;13.80
10058;BMP180;5068;51.286;7.518;2023-10-09T02:19:33;99770.00;;;13.80
10058;BMP180;5068;51.286;7.518;2023-10-09T02:21:08;99769.00;;;13.80
10058;BMP180;5068;51.286;7.518;2023-10-09T02:22:46;99774.00;;;13.80
10058;BMP180;5068;51.286;7.518;2023-10-09T02:24:20;99766.00;;;13.80
10058;BMP180;5068;51.286;7.518;2023-10-09T02:26:15;99774.00;;;13.70
10058;BMP180;5068;51.286;7.518;2023-10-09T02:27:53;99771.00;;;13.80
10058;BMP180;5068;51.286;7.518;2023-10-09T02:29:25;99763.00;;;13.80
10058;BMP180;5068;51.286;7.518;2023-10-09T02:30:59;99767.00;;;13.80
10058;BMP180;5068;51.286;7.518;2023-10-09T02:32:32;99768.00;;;13.80
10058;BMP180;5068;51.286;7.518;2023-10-09T02:34:06;99775.00;;;13.80
10058;BMP180;5068;51.286;7.518;2023-10-09T02:35:40;99757.00;;;13.70
10058;BMP180;5068;51.286;7.518;2023-10-09T02:37:14;99770.00;;;13.70
10058;BMP180;5068;51.286;7.518;2023-10-09T02:38:55;99767.00;;;13.70
10058;BMP180;5068;51.286;7.518;2023-10-09T02:40:28;99758.00;;;13.70
10058;BMP180;5068;51.286;7.518;2023-10-09T02:42:11;99761.00;;;13.70
10058;BMP180;5068;51.286;7.518;2023-10-09T02:43:56;99755.00;;;13.60
10058;BMP180;5068;51.286;7.518;2023-10-09T02:45:42;99755.00;;;13.60
10058;BMP180;5068;51.286;7.518;2023-10-09T02:47:22;99747.00;;;13.60
10058;BMP180;5068;51.286;7.518;2023-10-09T02:49:02;99745.00;;;13.60
10058;BMP180;5068;51.286;7.518;2023-10-09T02:50:38;99741.00;;;13.60
10058;BMP180;5068;51.286;7.518;2023-10-09T02:52:11;99750.00;;;13.60
10058;BMP180;5068;51.286;7.518;2023-10-09T02:53:49;99750.00;;;13.60
10058;BMP180;5068;51.286;7.518;2023-10-09T02:55:22;99754.00;;;13.60
10058;BMP180;5068;51.286;7.518;2023-10-09T02:56:57;99761.00;;;13.60
10058;BMP180;5068;51.286;7.518;2023-10-09T02:58:39;99757.00;;;13.60
10058;BMP180;5068;51.286;7.518;2023-10-09T03:00:14;99755.00;;;13.60
10058;BMP180;5068;51.286;7.518;2023-10-09T03:01:52;99750.00;;;13.70
10058;BMP180;5068;51.286;7.518;2023-10-09T03:03:25;99741.00;;;13.70
10058;BMP180;5068;51.286;7.518;2023-10-09T03:04:59;99751.00;;;13.70
10058;BMP180;5068;51.286;7.518;2023-10-09T03:06:35;99750.00;;;13.70
10058;BMP180;5068;51.286;7.518;2023-10-09T03:08:15;99742.00;;;13.70
10058;BMP180;5068;51.286;7.518;2023-10-09T03:09:51;99736.00;;;13.70
10058;BMP180;5068;51.286;7.518;2023-10-09T03:11:24;99744.00;;;13.70
10058;BMP180;5068;51.286;7.518;2023-10-09T03:12:59;99739.00;;;13.70
10058;BMP180;5068;51.286;7.518;2023-10-09T03:14:37;99745.00;;;13.70
10058;BMP180;5068;51.286;7.518;2023-10-09T03:16:11;99740.00;;;13.70
10058;BMP180;5068;51.286;7.518;2023-10-09T03:17:48;99742.00;;;13.70
10058;BMP180;5068;51.286;7.518;2023-10-09T03:19:20;99737.00;;;13.70
10058;BMP180;5068;51.286;7.518;2023-10-09T03:20:53;99737.00;;;13.70
10058;BMP180;5068;51.286;7.518;2023-10-09T03:22:25;99737.00;;;13.70
10058;BMP180;5068;51.286;7.518;2023-10-09T03:23:59;99737.00;;;13.70
10058;BMP180;5068;51.286;7.518;2023-10-09T03:25:36;99731.00;;;13.80
10058;BMP180;5068;51.286;7.518;2023-10-09T03:27:10;99731.00;;;13.80
10058;BMP180;5068;51.286;7.518;2023-10-09T03:28:43;99731.00;;;13.80
10058;BMP180;5068;51.286;7.518;2023-10-09T03:30:17;99734.00;;;13.80
10058;BMP180;5068;51.286;7.518;2023-10-09T03:31:56;99718.00;;;13.80
10058;BMP180;5068;51.286;7.518;2023-10-09T03:33:29;99722.00;;;13.80
10058;BMP180;5068;51.286;7.518;2023-10-09T03:35:06;99735.00;;;13.80
10058;BMP180;5068;51.286;7.518;2023-10-09T03:36:52;99724.00;;;13.80
10058;BMP180;5068;51.286;7.518;2023-10-09T03:38:36;99721.00;;;13.80
10058;BMP180;5068;51.286;7.518;2023-10-09T03:40:10;99711.00;;;13.70
10058;BMP180;5068;51.286;7.518;2023-10-09T03:41:50;99722.00;;;13.80
10058;BMP180;5068;51.286;7.518;2023-10-09T03:43:22;99720.00;;;13.80
10058;BMP180;5068;51.286;7.518;2023-10-09T03:44:56;99719.00;;;13.80
10058;BMP180;5068;51.286;7.518;2023-10-09T03:46:30;99716.00;;;13.80
10058;BMP180;5068;51.286;7.518;2023-10-09T03:48:06;99720.00;;;13.80
10058;BMP180;5068;51.286;7.518;2023-10-09T03:49:44;99729.00;;;13.90
10058;BMP180;5068;51.286;7.518;2023-10-09T03:51:17;99722.00;;;13.90
10058;BMP180;5068;51.286;7.518;2023-10-09T03:52:54;99721.00;;;13.90
10058;BMP180;5068;51.286;7.518;2023-10-09T03:54:27;99725.00;;;13.90
10058;BMP180;5068;51.286;7.518;2023-10-09T03:56:02;99724.00;;;13.90
10058;BMP180;5068;51.286;7.518;2023-10-09T03:57:37;99729.00;;;13.90
10058;BMP180;5068;51.286;7.518;2023-10-09T03:59:11;99716.00;;;13.90
10058;BMP180;5068;51.286;7.518;2023-10-09T04:00:48;99722.00;;;14.00
10058;BMP180;5068;51.286;7.518;2023-10-09T04:02:21;99708.00;;;14.00
10058;BMP180;5068;51.286;7.518;2023-10-09T04:03:59;99714.00;;;14.00
10058;BMP180;5068;51.286;7.518;2023-10-09T04:05:32;99708.00;;;14.00
10058;BMP180;5068;51.286;7.518;2023-10-09T04:07:05;99700.00;;;14.00
10058;BMP180;5068;51.286;7.518;2023-10-09T04:08:39;99691.00;;;14.00
10058;BMP180;5068;51.286;7.518;2023-10-09T04:10:19;99693.00;;;14.00
10058;BMP180;5068;51.286;7.518;2023-10-09T04:12:16;99688.00;;;14.00
10058;BMP180;5068;51.286;7.518;2023-10-09T04:13:57;99688.00;;;14.00
10058;BMP180;5068;51.286;7.518;2023-10-09T04:15:36;99700.00;;;14.10
10058;BMP180;5068;51.286;7.518;2023-10-09T04:17:08;99688.00;;;14.10
10058;BMP180;5068;51.286;7.518;2023-10-09T04:19:03;99671.00;;;14.10
10058;BMP180;5068;51.286;7.518;2023-10-09T04:20:43;99686.00;;;14.10
10058;BMP180;5068;51.286;7.518;2023-10-09T04:22:40;99701.00;;;14.10
10058;BMP180;5068;51.286;7.518;2023-10-09T04:24:22;99694.00;;;14.10
10058;BMP180;5068;51.286;7.518;2023-10-09T04:25:55;99686.00;;;14.20
10058;BMP180;5068;51.286;7.518;2023-10-09T04:27:31;99678.00;;;14.20
10058;BMP180;5068;51.286;7.518;2023-10-09T04:29:08;99681.00;;;14.20
10058;BMP180;5068;51.286;7.518;2023-10-09T04:30:42;99681.00;;;14.20
10058;BMP180;5068;51.286;7.518;2023-10-09T04:32:16;99683.00;;;14.30
10058;BMP180;5068;51.286;7.518;2023-10-09T04:33:50;99682.00;;;14.30
10058;BMP180;5068;51.286;7.518;2023-10-09T04:35:39;99682.00;;;14.30
10058;BMP180;5068;51.286;7.518;2023-10-09T04:37:17;99671.00;;;14.30
10058;BMP180;5068;51.286;7.518;2023-10-09T04:38:56;99680.00;;;14.30
10058;BMP180;5068;51.286;7.518;2023-10-09T04:40:48;99673.00;;;14.30
10058;BMP180;5068;51.286;7.518;2023-10-09T04:42:23;99677.00;;;14.30
10058;BMP180;5068;51.286;7.518;2023-10-09T04:44:10;99673.00;;;14.30
10058;BMP180;5068;51.286;7.518;2023-10-09T04:45:52;99675.00;;;14.30
10058;BMP180;5068;51.286;7.518;2023-10-09T04:47:41;99673.00;;;14.40
10058;BMP180;5068;51.286;7.518;2023-10-09T04:49:29;99670.00;;;14.40
10058;BMP180;5068;51.286;7.518;2023-10-09T04:51:07;99673.00;;;14.40
10058;BMP180;5068;51.286;7.518;2023-10-09T04:53:00;99677.00;;;14.40
10058;BMP180;5068;51.286;7.518;2023-10-09T04:54:53;99688.00;;;14.40
10058;BMP180;5068;51.286;7.518;2023-10-09T04:56:44;99691.00;;;14.40
10058;BMP180;5068;51.286;7.518;2023-10-09T04:58:27;99685.00;;;14.40
10058;BMP180;5068;51.286;7.518;2023-10-09T04:59:59;99686.00;;;14.50
10058;BMP180;5068;51.286;7.518;2023-10-09T05:01:36;99684.00;;;14.50
10058;BMP180;5068;51.286;7.518;2023-10-09T05:03:09;99683.00;;;14.50
10058;BMP180;5068;51.286;7.518;2023-10-09T05:04:44;99679.00;;;14.50
10058;BMP180;5068;51.286;7.518;2023-10-09T05:06:21;99681.00;;;14.50
10058;BMP180;5068;51.286;7.518;2023-10-09T05:07:53;99674.00;;;14.50
10058;BMP180;5068;51.286;7.518;2023-10-09T05:09:27;99668.00;;;14.60
10058;BMP180;5068;51.286;7.518;2023-10-09T05:11:22;99659.00;;;14.60
10058;BMP180;5068;51.286;7.518;2023-10-09T05:13:26;99663.00;;;14.60
10058;BMP180;5068;51.286;7.518;2023-10-09T05:15:15;99665.00;;;14.60
10058;BMP180;5068;51.286;7.518;2023-10-09T05:16:49;99664.00;;;14.60
10058;BMP180;5068;51.286;7.518;2023-10-09T05:18:26;99660.00;;;14.60
10058;BMP180;5068;51.286;7.518;2023-10-09T05:19:59;99659.00;;;14.60
10058;BMP180;5068;51.286;7.518;2023-10-09T05:21:48;99654.00;;;14.70
10058;BMP180;5068;51.286;7.518;2023-10-09T05:23:20;99654.00;;;14.70
10058;BMP180;5068;51.286;7.518;2023-10-09T05:24:58;99665.00;;;14.70
10058;BMP180;5068;51.286;7.518;2023-10-09T05:26:30;99657.00;;;14.70
10058;BMP180;5068;51.286;7.518;2023-10-09T05:28:23;99662.00;;;14.70
10058;BMP180;5068;51.286;7.518;2023-10-09T05:30:04;99670.00;;;14.70
10058;BMP180;5068;51.286;7.518;2023-10-09T05:31:56;99665.00;;;14.60
10058;BMP180;5068;51.286;7.518;2023-10-09T05:33:29;99660.00;;;14.70
10058;BMP180;5068;51.286;7.518;2023-10-09T05:35:08;99657.00;;;14.60
10058;BMP180;5068;51.286;7.518;2023-10-09T05:36:49;99664.00;;;14.70
10058;BMP180;5068;51.286;7.518;2023-10-09T05:38:21;99662.00;;;14.70
10058;BMP180;5068;51.286;7.518;2023-10-09T05:39:56;99678.00;;;14.70
10058;BMP180;5068;51.286;7.518;2023-10-09T05:41:50;99664.00;;;14.70
10058;BMP180;5068;51.286;7.518;2023-10-09T05:43:32;99677.00;;;14.70
10058;BMP180;5068;51.286;7.518;2023-10-09T05:45:23;99674.00;;;14.70
10058;BMP180;5068;51.286;7.518;2023-10-09T05:47:14;99670.00;;;14.70
10058;BMP180;5068;51.286;7.518;2023-10-09T05:49:07;99672.00;;;14.70
10058;BMP180;5068;51.286;7.518;2023-10-09T05:50:52;99674.00;;;14.70
10058;BMP180;5068;51.286;7.518;2023-10-09T05:52:45;99685.00;;;14.70
10058;BMP180;5068;51.286;7.518;2023-10-09T05:54:38;99690.00;;;14.70
10058;BMP180;5068;51.286;7.518;2023-10-09T05:56:41;99695.00;;;14.80
10058;BMP180;5068;51.286;7.518;2023-10-09T05:58:40;99695.00;;;14.80
10058;BMP180;5068;51.286;7.518;2023-10-09T06:00:30;99713.00;;;14.80
10058;BMP180;5068;51.286;7.518;2023-10-09T06:02:21;99732.00;;;14.80
10058;BMP180;5068;51.286;7.518;2023-10-09T06:04:27;99741.00;;;14.80
10058;BMP180;5068;51.286;7.518;2023-10-09T06:06:22;99737.00;;;14.90
10058;BMP180;5068;51.286;7.518;2023-10-09T06:08:17;99724.00;;;14.90
10058;BMP180;5068;51.286;7.518;2023-10-09T06:09:57;99730.00;;;14.90
10058;BMP180;5068;51.286;7.518;2023-10-09T06:11:30;99720.00;;;14.90
10058;BMP180;5068;51.286;7.518;2023-10-09T06:13:10;99716.00;;;14.90
10058;BMP180;5068;51.286;7.518;2023-10-09T06:15:10;99716.00;;;14.90
10058;BMP180;5068;51.286;7.518;2023-10-09T06:17:03;99715.00;;;14.90
10058;BMP180;5068;51.286;7.518;2023-10-09T06:18:54;99725.00;;;14.90
10058;BMP180;5068;51.286;7.518;2023-10-09T06:20:40;99717.00;;;14.90
10058;BMP180;5068;51.286;7.518;2023-10-09T06:22:35;99727.00;;;15.00
10058;BMP180;5068;51.286;7.518;2023-10-09T06:24:27;99733.00;;;15.00
10058;BMP180;5068;51.286;7.518;2023-10-09T06:26:06;99738.00;;;15.00
10058;BMP180;5068;51.286;7.518;2023-10-09T06:27:55;99740.00;;;15.00
10058;BMP180;5068;51.286;7.518;2023-10-09T06:29:31;99735.00;;;15.10
10058;BMP180;5068;51.286;7.518;2023-10-09T06:31:07;99737.00;;;15.10
10058;BMP180;5068;51.286;7.518;2023-10-09T06:32:54;99734.00;;;15.10
10058;BMP180;5068;51.286;7.518;2023-10-09T06:34:37;99751.00;;;15.10
10058;BMP180;5068;51.286;7.518;2023-10-09T06:36:16;99766.00;;;15.20
10058;BMP180;5068;51.286;7.518;2023-10-09T06:37:51;99762.00;;;15.20
10058;BMP180;5068;51.286;7.518;2023-10-09T06:39:43;99774.00;;;15.20
10058;BMP180;5068;51.286;7.518;2023-10-09T06:41:39;99767.00;;;15.30
10058;BMP180;5068;51.286;7.518;2023-10-09T06:43:17;99776.00;;;15.30
10058;BMP180;5068;51.286;7.518;2023-10-09T06:44:51;99780.00;;;15.30
10058;BMP180;5068;51.286;7.518;2023-10-09T06:46:27;99776.00;;;15.40
10058;BMP180;5068;51.286;7.518;2023-10-09T06:48:17;99781.00;;;15.40
10058;BMP180;5068;51.286;7.518;2023-10-09T06:50:09;99779.00;;;15.40
10058;BMP180;5068;51.286;7.518;2023-10-09T06:51:57;99785.00;;;15.40
10058;BMP180;5068;51.286;7.518;2023-10-09T06:53:45;99787.00;;;15.50
10058;BMP180;5068;51.286;7.518;2023-10-09T06:55:41;99795.00;;;15.50
10058;BMP180;5068;51.286;7.518;2023-10-09T06:57:20;99790.00;;;15.50
10058;BMP180;5068;51.286;7.518;2023-10-09T06:59:11;99792.00;;;15.50
10058;BMP180;5068;51.286;7.518;2023-10-09T07:00:49;99790.00;;;15.60
10058;BMP180;5068;51.286;7.518;2023-10-09T07:02:46;99782.00;;;15.60
10058;BMP180;5068;51.286;7.518;2023-10-09T07:04:18;99785.00;;;15.60
10058;BMP180;5068;51.286;7.518;2023-10-09T07:06:12;99785.00;;;15.60
10058;BMP180;5068;51.286;7.518;2023-10-09T07:07:57;99775.00;;;15.60
10058;BMP180;5068;51.286;7.518;2023-10-09T07:09:52;99768.00;;;15.70
10058;BMP180;5068;51.286;7.518;2023-10-09T07:11:47;99774.00;;;15.70
10058;BMP180;5068;51.286;7.518;2023-10-09T07:13:29;99780.00;;;15.70
10058;BMP180;5068;51.286;7.518;2023-10-09T07:15:09;99771.00;;;15.70
10058;BMP180;5068;51.286;7.518;2023-10-09T07:17:09;99764.00;;;15.80
10058;BMP180;5068;51.286;7.518;2023-10-09T07:18:48;99764.00;;;15.80
10058;BMP180;5068;51.286;7.518;2023-10-09T07:20:26;99741.00;;;15.80
10058;BMP180;5068;51.286;7.518;2023-10-09T07:22:17;99736.00;;;15.80
10058;BMP180;5068;51.286;7.518;2023-10-09T07:23:56;99741.00;;;15.90
10058;BMP180;5068;51.286;7.518;2023-10-09T07:25:29;99728.00;;;15.90
10058;BMP180;5068;51.286;7.518;2023-10-09T07:27:16;99726.00;;;16.00
10058;BMP180;5068;51.286;7.518;2023-10-09T07:28:50;99718.00;;;16.00
10058;BMP180;5068;51.286;7.518;2023-10-09T07:30:32;99715.00;;;16.00
10058;BMP180;5068;51.286;7.518;2023-10-09T07:32:07;99730.00;;;16.10
10058;BMP180;5068;51.286;7.518;2023-10-09T07:33:52;99739.00;;;16.20
10058;BMP180;5068;51.286;7.518;2023-10-09T07:35:31;99743.00;;;16.20
10058;BMP180;5068;51.286;7.518;2023-10-09T07:37:20;99744.00;;;16.20
10058;BMP180;5068;51.286;7.518;2023-10-09T07:38:56;99763.00;;;16.30
10058;BMP180;5068;51.286;7.518;2023-10-09T07:40:28;99760.00;;;16.30
10058;BMP180;5068;51.286;7.518;2023-10-09T07:42:07;99759.00;;;16.40
10058;BMP180;5068;51.286;7.518;2023-10-09T07:44:00;99756.00;;;16.40
10058;BMP180;5068;51.286;7.518;2023-10-09T07:45:51;99764.00;;;16.50
10058;BMP180;5068;51.286;7.518;2023-10-09T07:47:53;99776.00;;;16.50
10058;BMP180;5068;51.286;7.518;2023-10-09T07:49:37;99778.00;;;16.60
10058;BMP180;5068;51.286;7.518;2023-10-09T07:51:11;99783.00;;;16.60
10058;BMP180;5068;51.286;7.518;2023-10-09T07:52:45;99776.00;;;16.70
10058;BMP180;5068;51.286;7.518;2023-10-09T07:54:17;99785.00;;;16.70
10058;BMP180;5068;51.286;7.518;2023-10-09T07:56:04;99774.00;;;16.80
10058;BMP180;5068;51.286;7.518;2023-10-09T07:57:39;99794.00;;;16.80
10058;BMP180;5068;51.286;7.518;2023-10-09T07:59:12;99787.00;;;16.90
10058;BMP180;5068;51.286;7.518;2023-10-09T08:00:45;99793.00;;;16.90
10058;BMP180;5068;51.286;7.518;2023-10-09T08:02:39;99789.00;;;17.00
10058;BMP180;5068;51.286;7.518;2023-10-09T08:04:14;99769.00;;;17.00
10058;BMP180;5068;51.286;7.518;2023-10-09T08:05:52;99762.00;;;17.10
10058;BMP180;5068;51.286;7.518;2023-10-09T08:07:26;99741.00;;;17.10
10058;BMP180;5068;51.286;7.518;2023-10-09T08:09:26;99743.00;;;17.20
10058;BMP180;5068;51.286;7.518;2023-10-09T08:11:19;99734.00;;;17.30
10058;BMP180;5068;51.286;7.518;2023-10-09T08:13:09;99726.00;;;17.30
10058;BMP180;5068;51.286;7.518;2023-10-09T08:15:12;99730.00;;;17.40
10058;BMP180;5068;51.286;7.518;2023-10-09T08:16:57;99715.00;;;17.50
10058;BMP180;5068;51.286;7.518;2023-10-09T08:18:43;99707.00;;;17.60
10058;BMP180;5068;51.286;7.518;2023-10-09T08:20:21;99715.00;;;17.60
10058;BMP180;5068;51.286;7.518;2023-10-09T08:21:57;99707.00;;;17.70
10058;BMP180;5068;51.286;7.518;2023-10-09T08:24:09;99694.00;;;17.70
10058;BMP180;5068;51.286;7.518;2023-10-09T08:26:09;99725.00;;;17.80
10058;BMP180;5068;51.286;7.518;2023-10-09T08:27:44;99729.00;;;17.90
10058;BMP180;5068;51.286;7.518;2023-10-09T08:29:26;99746.00;;;17.90
10058;BMP180;5068;51.286;7.518;2023-10-09T08:31:09;99746.00;;;18.00
10058;BMP180;5068;51.286;7.518;2023-10-09T08:32:51;99749.00;;;18.00
10058;BMP180;5068;51.286;7.518;2023-10-09T08:34:37;99758.00;;;18.10
10058;BMP180;5068;51.286;7.518;2023-10-09T08:36:25;99774.00;;;18.10
10058;BMP180;5068;51.286;7.518;2023-10-09T08:38:04;99781.00;;;18.20
10058;BMP180;5068;51.286;7.518;2023-10-09T08:39:40;99772.00;;;18.20
10058;BMP180;5068;51.286;7.518;2023-10-09T08:41:14;99781.00;;;18.30
10058;BMP180;5068;51.286;7.518;2023-10-09T08:42:53;99791.00;;;18.30
10058;BMP180;5068;51.286;7.518;2023-10-09T08:44:27;99800.00;;;18.40
10058;BMP180;5068;51.286;7.518;2023-10-09T08:46:02;99810.00;;;18.40
10058;BMP180;5068;51.286;7.518;2023-10-09T08:47:37;99823.00;;;18.50
10058;BMP180;5068;51.286;7.518;2023-10-09T08:49:10;99824.00;;;18.50
10058;BMP180;5068;51.286;7.518;2023-10-09T08:50:46;99819.00;;;18.50
10058;BMP180;5068;51.286;7.518;2023-10-09T08:52:24;99803.00;;;18.60
10058;BMP180;5068;51.286;7.518;2023-10-09T08:53:58;99811.00;;;18.60
10058;BMP180;5068;51.286;7.518;2023-10-09T08:55:30;99802.00;;;18.70
10058;BMP180;5068;51.286;7.518;2023-10-09T08:57:03;99787.00;;;18.70
10058;BMP180;5068;51.286;7.518;2023-10-09T08:58:41;99796.00;;;18.80
10058;BMP180;5068;51.286;7.518;2023-10-09T09:00:17;99804.00;;;18.80
10058;BMP180;5068;51.286;7.518;2023-10-09T09:01:54;99793.00;;;18.80
10058;BMP180;5068;51.286;7.518;2023-10-09T09:03:39;99796.00;;;18.90
10058;BMP180;5068;51.286;7.518;2023-10-09T09:05:17;99809.00;;;18.90
10058;BMP180;5068;51.286;7.518;2023-10-09T09:06:50;99823.00;;;18.90
10058;BMP180;5068;51.286;7.518;2023-10-09T09:08:26;99837.00;;;19.00
10058;BMP180;5068;51.286;7.518;2023-10-09T09:10:01;99827.00;;;19.00
10058;BMP180;5068;51.286;7.518;2023-10-09T09:11:49;99823.00;;;19.10
10058;BMP180;5068;51.286;7.518;2023-10-09T09:13:22;99794.00;;;19.10
10058;BMP180;5068;51.286;7.518;2023-10-09T09:14:55;99768.00;;;19.10
10058;BMP180;5068;51.286;7.518;2023-10-09T09:16:31;99756.00;;;19.10
10058;BMP180;5068;51.286;7.518;2023-10-09T09:18:08;99753.00;;;19.10
10058;BMP180;5068;51.286;7.518;2023-10-09T09:19:41;99739.00;;;19.10
10058;BMP180;5068;51.286;7.518;2023-10-09T09:21:18;99725.00;;;19.20
10058;BMP180;5068;51.286;7.518;2023-10-09T09:22:55;99707.00;;;19.20
10058;BMP180;5068;51.286;7.518;2023-10-09T09:24:31;99692.00;;;19.20
10058;BMP180;5068;51.286;7.518;2023-10-09T09:26:05;99692.00;;;19.20
10058;BMP180;5068;51.286;7.518;2023-10-09T09:27:44;99689.00;;;19.20
10058;BMP180;5068;51.286;7.518;2023-10-09T09:29:38;99691.00;;;19.30
10058;BMP180;5068;51.286;7.518;2023-10-09T09:31:11;99682.00;;;19.30
10058;BMP180;5068;51.286;7.518;2023-10-09T09:32:46;99673.00;;;19.30
10058;BMP180;5068;51.286;7.518;2023-10-09T09:34:44;99673.00;;;19.40
10058;BMP180;5068;51.286;7.518;2023-10-09T09:36:20;99666.00;;;19.50
10058;BMP180;5068;51.286;7.518;2023-10-09T09:37:53;99651.00;;;19.50
10058;BMP180;5068;51.286;7.518;2023-10-09T09:39:27;99661.00;;;19.60
10058;BMP180;5068;51.286;7.518;2023-10-09T09:41:18;99652.00;;;19.60
10058;BMP180;5068;51.286;7.518;2023-10-09T09:42:59;99659.00;;;19.60
10058;BMP180;5068;51.286;7.518;2023-10-09T09:44:38;99664.00;;;19.60